Impacts TAF Board
For situational awareness. Not to be used for flight planning purposes.
IDs:

KGEG - Spokane Intl, WA, US

Issued at 1122 UTC 07 Jul 2020
Updated at 1306 UTC 07 Jul 2020
Potential Impact None Slight Moderate High
Time<<08/02Z 08/03Z 08/04Z 08/05Z 08/06Z 08/07Z 08/08Z 08/09Z 08/10Z 08/11Z 08/12Z 08/13Z 08/14Z>>
Type PRVL PRVL PRVL PRVL PRVL PRVL PRVL PRVL PRVL PRVL
VIS >6 >6 >6 >6 >6 >6 >6 >6 >6 >6
CIG 70 70 -- -- -- -- -- -- -- --
Cover BKN BKN SCT SCT SCT SCT SCT SCT SCT SCT
FltCat VFR VFR VFR VFR VFR VFR VFR VFR VFR VFR
WX -- -- -- -- -- -- -- -- -- --
WDir 210 210 220 220 220 220 220 220 220 220
WSpd 16 16 10 10 10 10 10 10 10 10
WGst 25 25 -- -- -- -- -- -- -- --
Raw TAF
KGEG 071122Z 0712/0812 16010G20KT P6SM SCT060 OVC110
  FM071300 18010G15KT P6SM FEW045 SCT090
  FM071500 20011G20KT P6SM FEW030 SCT050
  FM071800 21016G25KT P6SM SCT040 BKN070
  FM080400 22010KT P6SM SCT080


METAR Board
Radar Display
Forecast Discussion
For situational awareness. Not to be used for flight planning purposes.